createdAt,value
2023-05-08T00:00:59.508Z,0.00
2023-05-08T00:01:59.409Z,0.00
2023-05-08T00:02:59.450Z,0.00
2023-05-08T00:03:59.623Z,0.00
2023-05-08T00:04:59.520Z,0.00
2023-05-08T00:05:59.334Z,0.00
2023-05-08T00:06:59.320Z,0.00
2023-05-08T00:07:59.291Z,0.00
2023-05-08T00:08:59.267Z,0.00
2023-05-08T00:09:59.288Z,0.00
2023-05-08T00:10:59.252Z,0.00
2023-05-08T00:11:59.254Z,0.00
2023-05-08T00:12:59.310Z,0.00
2023-05-08T00:13:59.287Z,0.00
2023-05-08T00:14:59.193Z,0.00
2023-05-08T00:15:59.216Z,0.00
2023-05-08T00:16:59.226Z,0.00
2023-05-08T00:17:59.239Z,0.00
2023-05-08T00:18:59.207Z,0.00
2023-05-08T00:19:59.160Z,0.00
2023-05-08T00:20:59.129Z,0.00
2023-05-08T00:21:59.115Z,0.00
2023-05-08T00:22:59.101Z,0.00
2023-05-08T00:23:59.107Z,0.00
2023-05-08T00:24:59.134Z,0.00
2023-05-08T00:25:59.083Z,0.00
2023-05-08T00:26:59.068Z,0.00
2023-05-08T00:27:59.069Z,0.00
2023-05-08T00:28:59.058Z,0.00
2023-05-08T00:29:59.046Z,0.00
2023-05-08T00:30:59.019Z,0.00
2023-05-08T00:31:59.070Z,0.00
2023-05-08T00:32:59.075Z,0.00
2023-05-08T00:33:58.997Z,0.00
2023-05-08T00:34:58.965Z,0.00
2023-05-08T00:35:58.947Z,0.00
2023-05-08T00:36:58.946Z,0.00
2023-05-08T00:37:59.005Z,0.00
2023-05-08T00:38:58.923Z,0.00
2023-05-08T00:39:58.895Z,0.00
2023-05-08T00:40:58.883Z,0.00
2023-05-08T00:41:58.943Z,0.00
2023-05-08T00:42:58.869Z,0.00
2023-05-08T00:43:58.850Z,0.00
2023-05-08T00:44:58.857Z,0.00
2023-05-08T00:46:01.725Z,0.00
2023-05-08T00:46:58.841Z,0.00
2023-05-08T00:47:58.850Z,0.00
2023-05-08T00:48:58.807Z,0.00
2023-05-08T00:49:58.785Z,0.00
2023-05-08T00:50:58.768Z,0.00
2023-05-08T00:51:58.789Z,0.00
2023-05-08T00:52:58.761Z,0.00
2023-05-08T00:53:58.730Z,0.00
2023-05-08T00:54:58.735Z,0.00
2023-05-08T00:55:58.765Z,0.00
2023-05-08T00:56:58.716Z,0.00
2023-05-08T00:57:58.682Z,0.00
2023-05-08T00:58:58.692Z,0.00
2023-05-08T00:59:58.775Z,0.00
2023-05-08T01:00:58.692Z,0.00
2023-05-08T01:01:58.711Z,0.00
2023-05-08T01:02:58.721Z,0.00
2023-05-08T01:03:58.667Z,0.00
2023-05-08T01:04:58.635Z,0.00
2023-05-08T01:05:58.657Z,0.00
2023-05-08T01:06:58.616Z,0.00
2023-05-08T01:07:58.602Z,0.00
2023-05-08T01:08:58.570Z,0.00
2023-05-08T01:09:58.572Z,0.00
2023-05-08T01:10:58.588Z,0.00
2023-05-08T01:11:58.535Z,0.00
2023-05-08T01:12:58.560Z,0.00
2023-05-08T01:13:58.505Z,0.00
2023-05-08T01:14:58.505Z,0.00
2023-05-08T01:15:58.516Z,0.00
2023-05-08T01:16:58.519Z,0.00
2023-05-08T01:17:58.550Z,0.00
2023-05-08T01:18:58.452Z,0.00
2023-05-08T01:19:58.466Z,0.00
2023-05-08T01:20:58.419Z,0.00
2023-05-08T01:21:58.427Z,0.00
2023-05-08T01:22:58.705Z,0.00
2023-05-08T01:23:58.421Z,0.00
2023-05-08T01:24:58.406Z,0.00
2023-05-08T01:25:58.375Z,0.00
2023-05-08T01:26:58.374Z,0.00
2023-05-08T01:27:58.356Z,0.00
2023-05-08T01:28:58.349Z,0.00
2023-05-08T01:29:58.330Z,0.00
2023-05-08T01:30:58.305Z,0.00
2023-05-08T01:31:58.341Z,0.00
2023-05-08T01:32:58.464Z,0.00
2023-05-08T01:33:58.329Z,0.00
2023-05-08T01:34:58.274Z,0.00
2023-05-08T01:35:58.242Z,0.00
2023-05-08T01:36:58.290Z,0.00
2023-05-08T01:37:58.218Z,0.00
2023-05-08T01:38:58.219Z,0.00
2023-05-08T01:39:58.212Z,0.00
2023-05-08T01:40:58.208Z,0.00
2023-05-08T01:41:58.196Z,0.00
2023-05-08T01:42:58.200Z,0.00
2023-05-08T01:43:58.159Z,0.00
2023-05-08T01:44:58.137Z,0.00
2023-05-08T01:45:58.152Z,0.00
2023-05-08T01:46:58.162Z,0.00
2023-05-08T01:47:58.147Z,0.00
2023-05-08T01:48:58.127Z,0.00
2023-05-08T01:49:58.117Z,0.00
2023-05-08T01:50:58.088Z,0.00
2023-05-08T01:51:58.082Z,0.00
2023-05-08T01:52:58.066Z,0.00
2023-05-08T01:53:58.067Z,0.00
2023-05-08T01:56:29.621Z,0.00
2023-05-08T01:57:29.620Z,0.00
2023-05-08T01:58:29.616Z,0.00
2023-05-08T01:59:29.652Z,0.00
2023-05-08T02:00:29.639Z,0.00
2023-05-08T02:01:29.610Z,0.00
2023-05-08T02:02:29.685Z,0.00
2023-05-08T02:03:29.656Z,0.00
2023-05-08T02:04:30.810Z,0.00
2023-05-08T02:05:29.552Z,0.00
2023-05-08T02:06:29.562Z,0.00
2023-05-08T02:07:29.512Z,0.00
2023-05-08T02:08:29.492Z,0.00
2023-05-08T02:09:29.505Z,0.00
2023-05-08T02:10:29.481Z,0.00
2023-05-08T02:11:29.476Z,0.00
2023-05-08T02:12:29.474Z,0.00
2023-05-08T02:13:29.460Z,0.00
2023-05-08T02:14:29.416Z,0.00
2023-05-08T02:15:29.483Z,0.00
2023-05-08T02:16:29.436Z,0.00
2023-05-08T02:17:29.427Z,0.00
2023-05-08T02:18:29.398Z,0.00
2023-05-08T02:19:29.360Z,0.00
2023-05-08T02:20:29.374Z,0.00
2023-05-08T02:21:29.346Z,0.00
2023-05-08T02:22:29.318Z,0.00
2023-05-08T02:23:29.352Z,0.00
2023-05-08T02:24:29.318Z,0.00
2023-05-08T02:25:29.347Z,0.00
2023-05-08T02:26:29.314Z,0.00
2023-05-08T02:27:29.316Z,0.00
2023-05-08T02:28:29.290Z,0.00
2023-05-08T02:29:29.262Z,0.00
2023-05-08T02:30:29.268Z,0.00
2023-05-08T02:31:29.281Z,0.00
2023-05-08T02:32:29.266Z,0.00
2023-05-08T02:33:29.214Z,0.00
2023-05-08T02:34:29.223Z,0.00
2023-05-08T02:35:29.204Z,0.00
2023-05-08T02:36:29.183Z,0.00
2023-05-08T02:37:29.176Z,0.00
2023-05-08T02:38:29.173Z,0.00
2023-05-08T02:39:29.154Z,0.00
2023-05-08T02:40:29.151Z,0.00
2023-05-08T02:41:29.117Z,0.00
2023-05-08T02:42:29.155Z,0.00
2023-05-08T02:43:29.092Z,0.00
2023-05-08T02:44:29.144Z,0.00
2023-05-08T02:45:29.044Z,0.00
2023-05-08T02:46:29.104Z,0.00
2023-05-08T02:47:29.054Z,0.00
2023-05-08T02:48:29.042Z,0.00
2023-05-08T02:49:29.047Z,0.00
2023-05-08T02:50:29.020Z,0.00
2023-05-08T02:51:28.979Z,0.00
2023-05-08T02:52:28.984Z,0.00
2023-05-08T02:53:29.000Z,0.00
2023-05-08T02:54:28.978Z,0.00
2023-05-08T02:55:28.926Z,0.00
2023-05-08T02:56:28.921Z,0.00
2023-05-08T02:57:28.936Z,0.00
2023-05-08T02:58:28.919Z,0.00
2023-05-08T02:59:28.906Z,0.00
2023-05-08T03:00:28.866Z,0.00
2023-05-08T03:01:28.977Z,0.00
2023-05-08T03:02:28.957Z,0.00
2023-05-08T03:03:28.955Z,0.00
2023-05-08T03:04:28.824Z,0.00
2023-05-08T03:05:28.835Z,0.00
2023-05-08T03:06:28.843Z,0.00
2023-05-08T03:07:28.814Z,0.00
2023-05-08T03:08:28.783Z,0.00
2023-05-08T03:09:28.763Z,0.00
2023-05-08T03:10:28.762Z,0.00
2023-05-08T03:11:28.778Z,0.00
2023-05-08T03:12:28.735Z,0.00
2023-05-08T03:13:28.779Z,0.00
2023-05-08T03:14:28.717Z,0.00
2023-05-08T03:15:28.704Z,0.00
2023-05-08T03:16:28.714Z,0.00
2023-05-08T03:17:28.690Z,0.00
2023-05-08T03:18:28.688Z,0.00
2023-05-08T03:19:28.687Z,0.00
2023-05-08T03:20:28.690Z,0.00
2023-05-08T03:21:28.645Z,0.00
2023-05-08T03:22:28.653Z,0.00
2023-05-08T03:23:28.631Z,0.00
2023-05-08T03:24:28.628Z,0.00
2023-05-08T03:25:28.605Z,0.00
2023-05-08T03:26:28.568Z,0.00
2023-05-08T03:27:28.607Z,0.00
2023-05-08T03:28:28.596Z,0.00
2023-05-08T03:29:28.534Z,0.00
2023-05-08T03:30:28.528Z,0.00
2023-05-08T03:31:28.600Z,0.00
2023-05-08T03:32:28.552Z,4.00
2023-05-08T03:33:28.489Z,4.00
2023-05-08T03:34:36.509Z,0.00
2023-05-08T03:35:28.461Z,4.00
2023-05-08T03:36:28.473Z,4.00
2023-05-08T03:37:28.504Z,4.00
2023-05-08T03:38:28.454Z,4.00
2023-05-08T03:39:28.430Z,4.00
2023-05-08T03:40:28.409Z,8.00
2023-05-08T03:41:28.708Z,8.00
2023-05-08T03:42:28.402Z,12.00
2023-05-08T03:43:28.364Z,12.00
2023-05-08T03:44:28.381Z,12.00
2023-05-08T03:45:28.347Z,16.00
2023-05-08T03:46:28.344Z,16.00
2023-05-08T03:47:28.375Z,20.00
2023-05-08T03:48:28.314Z,24.00
2023-05-08T03:49:28.295Z,24.00
2023-05-08T03:50:28.327Z,24.00
2023-05-08T03:51:28.302Z,28.00
2023-05-08T03:52:28.286Z,32.00
2023-05-08T03:53:28.270Z,36.00
2023-05-08T03:54:28.246Z,40.00
2023-05-08T03:55:28.250Z,44.00
2023-05-08T03:56:28.242Z,44.00
2023-05-08T03:57:29.906Z,48.00
2023-05-08T03:58:28.225Z,52.00
2023-05-08T03:59:28.196Z,52.00
2023-05-08T04:00:28.197Z,56.00
2023-05-08T04:01:28.209Z,60.00
2023-05-08T04:02:28.281Z,64.00
2023-05-08T04:03:28.262Z,64.00
2023-05-08T04:04:28.132Z,68.00
2023-05-08T04:05:28.146Z,72.00
2023-05-08T04:06:30.742Z,76.00
2023-05-08T04:07:28.106Z,84.00
2023-05-08T04:08:28.094Z,88.00
2023-05-08T04:09:28.067Z,92.00
2023-05-08T04:10:28.095Z,92.00
2023-05-08T04:11:28.080Z,100.00
2023-05-08T04:12:28.059Z,104.00
2023-05-08T04:13:28.096Z,112.00
2023-05-08T04:14:28.974Z,116.00
2023-05-08T04:15:28.010Z,120.00
2023-05-08T04:16:28.060Z,124.00
2023-05-08T04:17:28.033Z,132.00
2023-05-08T04:18:27.968Z,136.00
2023-05-08T04:19:27.960Z,140.00
2023-05-08T04:20:27.967Z,152.00
2023-05-08T04:21:27.940Z,156.00
2023-05-08T04:22:27.947Z,168.00
2023-05-08T04:23:27.921Z,176.00
2023-05-08T04:24:27.911Z,184.00
2023-05-08T04:25:27.877Z,196.00
2023-05-08T04:26:29.684Z,204.00
2023-05-08T04:27:27.903Z,216.00
2023-05-08T04:28:27.873Z,224.00
2023-05-08T04:29:27.828Z,232.00
2023-05-08T04:30:27.893Z,240.00
2023-05-08T04:31:27.937Z,248.00
2023-05-08T04:32:27.842Z,256.00
2023-05-08T04:33:27.870Z,268.00
2023-05-08T04:34:27.823Z,272.00
2023-05-08T04:35:27.792Z,276.00
2023-05-08T04:36:27.779Z,280.00
2023-05-08T04:37:27.753Z,280.00
2023-05-08T04:38:27.749Z,280.00
2023-05-08T04:39:27.731Z,284.00
2023-05-08T04:40:27.742Z,288.00
2023-05-08T04:41:27.718Z,304.00
2023-05-08T04:42:27.708Z,324.00
2023-05-08T04:43:27.693Z,344.00
2023-05-08T04:44:27.648Z,360.00
2023-05-08T04:45:27.693Z,352.00
2023-05-08T04:46:27.679Z,352.00
2023-05-08T04:47:27.723Z,416.00
2023-05-08T04:48:27.617Z,464.00
2023-05-08T04:49:27.620Z,488.00
2023-05-08T04:50:27.583Z,508.00
2023-05-08T04:51:27.632Z,500.00
2023-05-08T04:52:27.649Z,492.00
2023-05-08T04:53:27.575Z,500.00
2023-05-08T04:54:27.585Z,500.00
2023-05-08T04:55:27.578Z,500.00
2023-05-08T04:56:27.536Z,516.00
2023-05-08T04:57:27.543Z,532.00
2023-05-08T04:58:27.547Z,540.00
2023-05-08T04:59:27.512Z,548.00
2023-05-08T05:00:27.504Z,540.00
2023-05-08T05:01:27.545Z,532.00
2023-05-08T05:02:30.397Z,544.00
2023-05-08T05:03:27.496Z,540.00
2023-05-08T05:04:27.450Z,532.00
2023-05-08T05:05:27.432Z,516.00
2023-05-08T05:06:27.406Z,504.00
2023-05-08T05:07:27.394Z,500.00
2023-05-08T05:08:27.440Z,488.00
2023-05-08T05:09:27.377Z,476.00
2023-05-08T05:10:27.357Z,464.00
2023-05-08T05:11:27.390Z,456.00
2023-05-08T05:12:27.353Z,448.00
2023-05-08T05:13:27.347Z,440.00
2023-05-08T05:14:27.311Z,432.00
2023-05-08T05:15:27.352Z,428.00
2023-05-08T05:16:27.452Z,424.00
2023-05-08T05:17:27.293Z,424.00
2023-05-08T05:18:27.269Z,428.00
2023-05-08T05:19:27.534Z,440.00
2023-05-08T05:20:29.236Z,448.00
2023-05-08T05:21:27.261Z,460.00
2023-05-08T05:22:27.215Z,472.00
2023-05-08T05:23:27.210Z,480.00
2023-05-08T05:24:27.234Z,492.00
2023-05-08T05:25:27.177Z,508.00
2023-05-08T05:26:27.176Z,532.00
2023-05-08T05:27:27.180Z,560.00
2023-05-08T05:28:27.211Z,604.00
2023-05-08T05:29:27.135Z,660.00
2023-05-08T05:30:27.267Z,728.00
2023-05-08T05:31:27.172Z,812.00
2023-05-08T05:32:27.185Z,904.00
2023-05-08T05:33:27.078Z,992.00
2023-05-08T05:34:27.082Z,1080.00
2023-05-08T05:35:27.066Z,1168.00
2023-05-08T05:36:27.067Z,1240.00
2023-05-08T05:37:27.030Z,1312.00
2023-05-08T05:38:27.050Z,1380.00
2023-05-08T05:39:27.079Z,1436.00
2023-05-08T05:40:28.011Z,1496.00
2023-05-08T05:41:26.997Z,1548.00
2023-05-08T05:42:26.987Z,1604.00
2023-05-08T05:43:27.008Z,1652.00
2023-05-08T05:44:27.252Z,1704.00
2023-05-08T05:45:26.953Z,1760.00
2023-05-08T05:46:26.989Z,1816.00
2023-05-08T05:47:26.978Z,1880.00
2023-05-08T05:48:26.927Z,1940.00
2023-05-08T05:49:26.889Z,2000.00
2023-05-08T05:50:26.919Z,2060.00
2023-05-08T05:51:28.725Z,2128.00
2023-05-08T05:52:26.870Z,2212.00
2023-05-08T05:53:26.876Z,2312.00
2023-05-08T05:54:26.833Z,2440.00
2023-05-08T05:55:26.856Z,2588.00
2023-05-08T05:56:26.826Z,2760.00
2023-05-08T05:57:26.812Z,2952.00
2023-05-08T05:58:26.815Z,3108.00
2023-05-08T05:59:26.815Z,3256.00
2023-05-08T06:00:26.820Z,3380.00
2023-05-08T06:01:27.799Z,3512.00
2023-05-08T06:02:26.905Z,3628.00
2023-05-08T06:03:27.014Z,3704.00
2023-05-08T06:04:26.859Z,3764.00
2023-05-08T06:05:26.789Z,3824.00
2023-05-08T06:06:26.694Z,3840.00
2023-05-08T06:07:26.733Z,3836.00
2023-05-08T06:08:26.680Z,3796.00
2023-05-08T06:09:26.677Z,3784.00
2023-05-08T06:10:29.455Z,3788.00
2023-05-08T06:11:27.503Z,3820.00
2023-05-08T06:12:26.669Z,3920.00
2023-05-08T06:13:26.723Z,4060.00
2023-05-08T06:14:26.646Z,4248.00
2023-05-08T06:15:26.597Z,4476.00
2023-05-08T06:16:26.648Z,4700.00
2023-05-08T06:17:26.588Z,4884.00
2023-05-08T06:18:26.569Z,5004.00
2023-05-08T06:19:26.586Z,5000.00
2023-05-08T06:20:26.761Z,4952.00
2023-05-08T06:21:28.425Z,4904.00
2023-05-08T06:22:26.517Z,4868.00
2023-05-08T06:23:26.534Z,4824.00
2023-05-08T06:24:26.500Z,4768.00
2023-05-08T06:25:26.505Z,4728.00
2023-05-08T06:26:26.481Z,4700.00
2023-05-08T06:27:26.455Z,4684.00
2023-05-08T06:28:26.473Z,4652.00
2023-05-08T06:29:26.544Z,4560.00
2023-05-08T06:30:26.462Z,4404.00
2023-05-08T06:31:28.138Z,4252.00
2023-05-08T06:32:26.703Z,4144.00
2023-05-08T06:33:27.103Z,4036.00
2023-05-08T06:34:26.368Z,3944.00
2023-05-08T06:35:26.378Z,3868.00
2023-05-08T06:36:26.368Z,3836.00
2023-05-08T06:37:26.343Z,3876.00
2023-05-08T06:38:26.376Z,3944.00
2023-05-08T06:39:26.329Z,4020.00
2023-05-08T06:40:31.301Z,4040.00
2023-05-08T06:41:26.320Z,4016.00
2023-05-08T06:42:26.321Z,3928.00
2023-05-08T06:43:26.281Z,3788.00
2023-05-08T06:44:26.275Z,3608.00
2023-05-08T06:45:26.266Z,3448.00
2023-05-08T06:46:26.293Z,3312.00
2023-05-08T06:47:26.269Z,3216.00
2023-05-08T06:48:26.233Z,3160.00
2023-05-08T06:49:26.203Z,3140.00
2023-05-08T06:50:26.216Z,3144.00
2023-05-08T06:51:26.884Z,3136.00
2023-05-08T06:52:26.185Z,3140.00
2023-05-08T06:53:26.171Z,3148.00
2023-05-08T06:54:26.223Z,3180.00
2023-05-08T06:55:26.150Z,3212.00
2023-05-08T06:56:26.135Z,3304.00
2023-05-08T06:57:26.114Z,3384.00
2023-05-08T06:58:26.149Z,3460.00
2023-05-08T06:59:26.088Z,3532.00
2023-05-08T07:00:26.152Z,3572.00
2023-05-08T07:01:27.876Z,3608.00
2023-05-08T07:02:26.091Z,3628.00
2023-05-08T07:03:27.248Z,3664.00
2023-05-08T07:04:26.066Z,3680.00
2023-05-08T07:05:26.072Z,3688.00
2023-05-08T07:06:26.020Z,3656.00
2023-05-08T07:07:28.776Z,3604.00
2023-05-08T07:08:26.048Z,3532.00
2023-05-08T07:09:25.982Z,3472.00
2023-05-08T07:10:25.972Z,3408.00
2023-05-08T07:11:26.042Z,3360.00
2023-05-08T07:12:25.993Z,3332.00
2023-05-08T07:13:26.007Z,3316.00
2023-05-08T07:14:25.987Z,3288.00
2023-05-08T07:15:26.919Z,3272.00
2023-05-08T07:16:25.934Z,3264.00
2023-05-08T07:17:25.921Z,3276.00
2023-05-08T07:18:25.904Z,3312.00
2023-05-08T07:19:25.919Z,3368.00
2023-05-08T07:20:25.912Z,3440.00
2023-05-08T07:21:25.841Z,3540.00
2023-05-08T07:22:25.904Z,3660.00
2023-05-08T07:23:25.817Z,3812.00
2023-05-08T07:24:25.812Z,4012.00
2023-05-08T07:25:25.796Z,4264.00
2023-05-08T07:26:25.829Z,4576.00
2023-05-08T07:27:25.779Z,4892.00
2023-05-08T07:28:25.792Z,5160.00
2023-05-08T07:29:25.774Z,5380.00
2023-05-08T07:30:25.741Z,5548.00
2023-05-08T07:31:25.740Z,5680.00
2023-05-08T07:32:25.798Z,5764.00
2023-05-08T07:33:25.718Z,5812.00
2023-05-08T07:34:25.712Z,5832.00
2023-05-08T07:35:25.689Z,5848.00
2023-05-08T07:36:25.692Z,5892.00
2023-05-08T07:37:25.662Z,5996.00
2023-05-08T07:38:28.464Z,6136.00
2023-05-08T07:39:25.706Z,6264.00
2023-05-08T07:40:25.624Z,6380.00
2023-05-08T07:41:25.802Z,6508.00
2023-05-08T07:42:25.622Z,6628.00
2023-05-08T07:43:25.603Z,6740.00
2023-05-08T07:44:25.612Z,6872.00
2023-05-08T07:45:25.582Z,6972.00
2023-05-08T07:46:25.600Z,7100.00
2023-05-08T07:47:25.580Z,7220.00
2023-05-08T07:48:25.535Z,7324.00
2023-05-08T07:49:25.566Z,7404.00
2023-05-08T07:50:29.398Z,7416.00
2023-05-08T07:51:26.251Z,7340.00
2023-05-08T07:52:29.217Z,7136.00
2023-05-08T07:53:27.165Z,6752.00
2023-05-08T07:54:28.471Z,6320.00
2023-05-08T07:55:25.472Z,5972.00
2023-05-08T07:56:25.481Z,5732.00
2023-05-08T07:57:25.461Z,5572.00
2023-05-08T07:58:25.457Z,5444.00
2023-05-08T07:59:25.513Z,5328.00
2023-05-08T08:00:25.418Z,5272.00
2023-05-08T08:01:25.402Z,5232.00
2023-05-08T08:02:25.441Z,5284.00
2023-05-08T08:03:25.421Z,5384.00
2023-05-08T08:04:25.431Z,5544.00
2023-05-08T08:05:25.377Z,5760.00
2023-05-08T08:06:25.615Z,6016.00
2023-05-08T08:07:25.341Z,6252.00
2023-05-08T08:08:25.312Z,6416.00
2023-05-08T08:09:25.416Z,6580.00
2023-05-08T08:10:25.293Z,6784.00
2023-05-08T08:11:25.289Z,7016.00
2023-05-08T08:12:25.269Z,7276.00
2023-05-08T08:13:25.307Z,7480.00
2023-05-08T08:14:26.996Z,7608.00
2023-05-08T08:15:25.249Z,7668.00
2023-05-08T08:16:26.034Z,7688.00
2023-05-08T08:17:26.906Z,7628.00
2023-05-08T08:18:25.210Z,7504.00
2023-05-08T08:19:25.213Z,7344.00
2023-05-08T08:20:25.171Z,7180.00
2023-05-08T08:21:25.180Z,7032.00
2023-05-08T08:22:25.301Z,6860.00
2023-05-08T08:23:25.232Z,6676.00
2023-05-08T08:24:25.143Z,6488.00
2023-05-08T08:25:25.133Z,6404.00
2023-05-08T08:26:25.113Z,6448.00
2023-05-08T08:27:25.125Z,6628.00
2023-05-08T08:28:25.137Z,6884.00
2023-05-08T08:29:25.100Z,7168.00
2023-05-08T08:30:25.090Z,7420.00
2023-05-08T08:31:25.146Z,7572.00
2023-05-08T08:32:25.084Z,7600.00
2023-05-08T08:33:25.052Z,7620.00
2023-05-08T08:34:25.031Z,7584.00
2023-05-08T08:35:25.062Z,7592.00
2023-05-08T08:36:25.006Z,7624.00
2023-05-08T08:37:24.996Z,7632.00
2023-05-08T08:38:24.978Z,7652.00
2023-05-08T08:39:24.972Z,7644.00
2023-05-08T08:40:24.959Z,7608.00
2023-05-08T08:41:24.932Z,7508.00
2023-05-08T08:42:24.984Z,7336.00
2023-05-08T08:43:24.911Z,7172.00
2023-05-08T08:44:24.919Z,6988.00
2023-05-08T08:45:24.897Z,6784.00
2023-05-08T08:46:24.938Z,6596.00
2023-05-08T08:47:24.910Z,6400.00
2023-05-08T08:48:25.817Z,6200.00
2023-05-08T08:49:24.876Z,6008.00
2023-05-08T08:50:24.847Z,5840.00
2023-05-08T08:51:25.775Z,5700.00
2023-05-08T08:52:24.826Z,5612.00
2023-05-08T08:53:24.804Z,5548.00
2023-05-08T08:54:24.780Z,5488.00
2023-05-08T08:55:24.829Z,5404.00
2023-05-08T08:56:24.761Z,5328.00
2023-05-08T08:57:24.764Z,5272.00
2023-05-08T08:58:24.743Z,5248.00
2023-05-08T08:59:24.737Z,5224.00
2023-05-08T09:00:24.748Z,5196.00
2023-05-08T09:01:24.877Z,5176.00
2023-05-08T09:02:24.779Z,5148.00
2023-05-08T09:03:24.742Z,5144.00
2023-05-08T09:04:24.864Z,5156.00
2023-05-08T09:05:24.677Z,5176.00
2023-05-08T09:06:24.671Z,5212.00
2023-05-08T09:07:24.668Z,5252.00
2023-05-08T09:08:24.627Z,5284.00
2023-05-08T09:09:24.624Z,5344.00
2023-05-08T09:10:24.615Z,5436.00
2023-05-08T09:11:24.644Z,5540.00
2023-05-08T09:12:24.591Z,5648.00
2023-05-08T09:13:24.634Z,5748.00
2023-05-08T09:14:24.554Z,5824.00
2023-05-08T09:15:24.572Z,5896.00
2023-05-08T09:16:24.578Z,5980.00
2023-05-08T09:17:24.611Z,6048.00
2023-05-08T09:18:24.507Z,6084.00
2023-05-08T09:19:26.340Z,6116.00
2023-05-08T09:20:24.493Z,6160.00
2023-05-08T09:21:24.486Z,6216.00
2023-05-08T09:22:24.472Z,6272.00
2023-05-08T09:23:24.470Z,6292.00
2023-05-08T09:24:24.510Z,6268.00
2023-05-08T09:25:24.517Z,6208.00
2023-05-08T09:26:24.403Z,6172.00
2023-05-08T09:27:24.414Z,6176.00
2023-05-08T09:28:24.430Z,6192.00
2023-05-08T09:29:24.576Z,6208.00
2023-05-08T09:30:24.374Z,6240.00
2023-05-08T09:31:24.426Z,6308.00
2023-05-08T09:32:24.384Z,6408.00
2023-05-08T09:33:24.360Z,6484.00
2023-05-08T09:34:24.350Z,6532.00
2023-05-08T09:35:24.306Z,6552.00
2023-05-08T09:36:24.314Z,6500.00
2023-05-08T09:37:24.281Z,6368.00
2023-05-08T09:38:24.292Z,6200.00
2023-05-08T09:39:24.277Z,6008.00
2023-05-08T09:40:24.256Z,5892.00
2023-05-08T09:41:24.236Z,5784.00
2023-05-08T09:42:24.222Z,5700.00
2023-05-08T09:43:24.218Z,5612.00
2023-05-08T09:44:24.229Z,5512.00
2023-05-08T09:45:24.188Z,5376.00
2023-05-08T09:46:24.322Z,5200.00
2023-05-08T09:47:24.335Z,4984.00
2023-05-08T09:48:24.225Z,4756.00
2023-05-08T09:49:24.141Z,4500.00
2023-05-08T09:50:24.119Z,4224.00
2023-05-08T09:51:24.129Z,3948.00
2023-05-08T09:52:24.140Z,3688.00
2023-05-08T09:53:24.099Z,3460.00
2023-05-08T09:54:24.078Z,3272.00
2023-05-08T09:55:24.063Z,3128.00
2023-05-08T09:56:24.074Z,3028.00
2023-05-08T09:57:24.068Z,2968.00
2023-05-08T09:58:24.054Z,2924.00
2023-05-08T09:59:24.016Z,2924.00
2023-05-08T10:00:24.042Z,2968.00
2023-05-08T10:01:24.129Z,3040.00
2023-05-08T10:02:24.017Z,3124.00
2023-05-08T10:03:24.274Z,3204.00
2023-05-08T10:04:23.970Z,3268.00
2023-05-08T10:05:24.030Z,3316.00
2023-05-08T10:06:23.948Z,3356.00
2023-05-08T10:07:23.953Z,3400.00
2023-05-08T10:08:23.930Z,3440.00
2023-05-08T10:09:23.979Z,3464.00
2023-05-08T10:10:23.905Z,3476.00
2023-05-08T10:11:23.929Z,3472.00
2023-05-08T10:12:23.937Z,3468.00
2023-05-08T10:13:23.916Z,3464.00
2023-05-08T10:14:23.863Z,3476.00
2023-05-08T10:15:23.844Z,3476.00
2023-05-08T10:16:23.892Z,3516.00
2023-05-08T10:17:23.872Z,3592.00
2023-05-08T10:18:23.808Z,3692.00
2023-05-08T10:19:23.828Z,3800.00
2023-05-08T10:20:23.841Z,3904.00
2023-05-08T10:21:23.807Z,3996.00
2023-05-08T10:22:23.802Z,4044.00
2023-05-08T10:23:23.763Z,4020.00
2023-05-08T10:24:23.764Z,3968.00
2023-05-08T10:25:23.757Z,3884.00
2023-05-08T10:26:23.740Z,3784.00
2023-05-08T10:27:23.712Z,3684.00
2023-05-08T10:28:23.704Z,3612.00
2023-05-08T10:29:23.704Z,3584.00
2023-05-08T10:30:23.710Z,3620.00
2023-05-08T10:31:23.696Z,3728.00
2023-05-08T10:32:23.703Z,3900.00
2023-05-08T10:33:23.645Z,4128.00
2023-05-08T10:34:23.644Z,4444.00
2023-05-08T10:35:24.781Z,4780.00
2023-05-08T10:36:23.628Z,5060.00
2023-05-08T10:37:23.618Z,5240.00
2023-05-08T10:38:23.691Z,5360.00
2023-05-08T10:39:23.594Z,5492.00
2023-05-08T10:40:23.596Z,5680.00
2023-05-08T10:41:23.596Z,5912.00
2023-05-08T10:42:23.539Z,6164.00
2023-05-08T10:43:23.569Z,6444.00
2023-05-08T10:44:23.529Z,6708.00
2023-05-08T10:45:23.509Z,7004.00
2023-05-08T10:46:23.502Z,7372.00
2023-05-08T10:47:23.591Z,7776.00
2023-05-08T10:48:23.497Z,8092.00
2023-05-08T10:49:23.479Z,8284.00
2023-05-08T10:50:23.455Z,8316.00
2023-05-08T10:51:23.478Z,8248.00
2023-05-08T10:52:23.439Z,8080.00
2023-05-08T10:53:23.443Z,7856.00
2023-05-08T10:54:23.401Z,7700.00
2023-05-08T10:55:23.419Z,7656.00
2023-05-08T10:56:25.142Z,7688.00
2023-05-08T10:57:23.379Z,7772.00
2023-05-08T10:58:23.371Z,7896.00
2023-05-08T10:59:23.341Z,8004.00
2023-05-08T11:00:23.332Z,8112.00
2023-05-08T11:01:23.344Z,8140.00
2023-05-08T11:02:23.346Z,8088.00
2023-05-08T11:03:31.386Z,7912.00
2023-05-08T11:04:24.376Z,7744.00
2023-05-08T11:05:23.307Z,7612.00
2023-05-08T11:06:23.256Z,7528.00
2023-05-08T11:07:23.256Z,7512.00
2023-05-08T11:08:23.238Z,7480.00
2023-05-08T11:09:23.263Z,7404.00
2023-05-08T11:10:23.925Z,7300.00
2023-05-08T11:11:23.203Z,7208.00
2023-05-08T11:12:24.295Z,7128.00
2023-05-08T11:13:23.340Z,7008.00
2023-05-08T11:14:23.160Z,6820.00
2023-05-08T11:15:24.745Z,6620.00
2023-05-08T11:16:23.198Z,6444.00
2023-05-08T11:17:23.274Z,6368.00
2023-05-08T11:18:26.318Z,6352.00
2023-05-08T11:19:23.122Z,6352.00
2023-05-08T11:20:23.241Z,6396.00
2023-05-08T11:21:23.958Z,6468.00
2023-05-08T11:22:23.133Z,6560.00
2023-05-08T11:23:23.148Z,6632.00
2023-05-08T11:24:24.015Z,6716.00
2023-05-08T11:25:25.116Z,6804.00
2023-05-08T11:26:23.057Z,6884.00
2023-05-08T11:27:23.011Z,6980.00
2023-05-08T11:28:23.018Z,7004.00
2023-05-08T11:29:22.996Z,6980.00
2023-05-08T11:30:23.024Z,6948.00
2023-05-08T11:31:23.071Z,6912.00
2023-05-08T11:32:22.970Z,6924.00
2023-05-08T11:33:22.997Z,7004.00
2023-05-08T11:34:22.946Z,7148.00
2023-05-08T11:35:22.939Z,7260.00
2023-05-08T11:36:22.954Z,7608.00
2023-05-08T11:37:22.904Z,8036.00
2023-05-08T11:38:22.938Z,8476.00
2023-05-08T11:39:22.878Z,8836.00
2023-05-08T11:40:22.912Z,9160.00
2023-05-08T11:41:22.841Z,9436.00
2023-05-08T11:42:22.844Z,9660.00
2023-05-08T11:43:22.829Z,9840.00
2023-05-08T11:44:22.834Z,9980.00
2023-05-08T11:45:22.819Z,10136.00
2023-05-08T11:46:22.875Z,10228.00
2023-05-08T11:47:22.988Z,10340.00
2023-05-08T11:48:22.766Z,10540.00
2023-05-08T11:49:26.866Z,10760.00
2023-05-08T11:50:23.795Z,11016.00
2023-05-08T11:51:22.763Z,11304.00
2023-05-08T11:52:22.710Z,11620.00
2023-05-08T11:53:22.710Z,11916.00
2023-05-08T11:54:22.699Z,12220.00
2023-05-08T11:55:23.486Z,12488.00
2023-05-08T11:56:22.658Z,12684.00
2023-05-08T11:57:22.690Z,12940.00
2023-05-08T11:58:22.680Z,13064.00
2023-05-08T11:59:27.573Z,13176.00
2023-05-08T12:00:23.472Z,13244.00
2023-05-08T12:01:22.616Z,13212.00
2023-05-08T12:02:22.761Z,13120.00
2023-05-08T12:03:23.225Z,13060.00
2023-05-08T12:04:22.776Z,13032.00
2023-05-08T12:05:22.697Z,12868.00
2023-05-08T12:06:22.555Z,12636.00
2023-05-08T12:07:22.625Z,12444.00
2023-05-08T12:08:22.621Z,12440.00
2023-05-08T12:09:22.538Z,12668.00
2023-05-08T12:10:22.513Z,13012.00
2023-05-08T12:11:22.516Z,13404.00
2023-05-08T12:12:24.429Z,13636.00
2023-05-08T12:13:22.537Z,13688.00
2023-05-08T12:14:22.500Z,13684.00
2023-05-08T12:15:22.469Z,13672.00
2023-05-08T12:16:22.493Z,13584.00
2023-05-08T12:17:22.746Z,13440.00
2023-05-08T12:18:22.747Z,13272.00
2023-05-08T12:19:22.484Z,13040.00
2023-05-08T12:20:22.443Z,12904.00
2023-05-08T12:21:22.387Z,12876.00
2023-05-08T12:22:22.401Z,12776.00
2023-05-08T12:23:22.386Z,12672.00
2023-05-08T12:24:22.640Z,12548.00
2023-05-08T12:25:22.336Z,12428.00
2023-05-08T12:26:22.360Z,12376.00
2023-05-08T12:27:22.322Z,12368.00
2023-05-08T12:28:22.304Z,12244.00
2023-05-08T12:29:22.661Z,12272.00
2023-05-08T12:30:22.851Z,12388.00